createdAt,value
2022-12-18T00:02:02.010Z,14.30
2022-12-18T00:04:35.919Z,13.60
2022-12-18T00:07:10.005Z,12.13
2022-12-18T00:09:43.963Z,14.18
2022-12-18T00:14:57.244Z,13.40
2022-12-18T00:17:33.042Z,13.65
2022-12-18T00:20:09.561Z,11.27
2022-12-18T00:22:43.449Z,12.00
2022-12-18T00:25:17.497Z,13.65
2022-12-18T00:27:51.481Z,11.98
2022-12-18T00:30:25.556Z,15.77
2022-12-18T00:33:00.964Z,13.75
2022-12-18T00:35:34.877Z,17.25
2022-12-18T00:38:08.796Z,12.98
2022-12-18T00:40:42.961Z,13.38
2022-12-18T00:43:15.831Z,14.10
2022-12-18T00:45:49.783Z,13.77
2022-12-18T00:48:25.131Z,11.73
2022-12-18T00:50:59.243Z,13.27
2022-12-18T00:53:33.116Z,11.88
2022-12-18T00:56:07.537Z,14.68
2022-12-18T00:58:41.938Z,14.43
2022-12-18T01:01:16.211Z,13.45
2022-12-18T01:03:51.960Z,17.52
2022-12-18T01:06:27.583Z,12.65
2022-12-18T01:09:01.512Z,10.57
2022-12-18T01:11:35.516Z,11.88
2022-12-18T01:14:09.479Z,12.50
2022-12-18T01:16:45.124Z,11.95
2022-12-18T01:19:20.514Z,16.77
2022-12-18T01:21:54.408Z,13.57
2022-12-18T01:24:28.284Z,16.92
2022-12-18T01:29:35.974Z,14.38
2022-12-18T01:32:10.121Z,12.65
2022-12-18T01:34:45.625Z,13.63
2022-12-18T01:37:20.475Z,12.48
2022-12-18T01:39:55.832Z,13.88
2022-12-18T01:42:29.846Z,15.40
2022-12-18T01:45:07.240Z,14.30
2022-12-18T01:47:43.310Z,14.35
2022-12-18T01:50:25.390Z,12.40
2022-12-18T01:53:06.057Z,14.90
2022-12-18T01:55:43.554Z,18.20
2022-12-18T01:58:18.074Z,12.90
2022-12-18T02:00:52.575Z,18.23
2022-12-18T02:03:27.334Z,14.07
2022-12-18T02:06:10.431Z,13.93
2022-12-18T02:09:01.072Z,16.08
2022-12-18T02:11:43.166Z,11.65
2022-12-18T02:14:26.161Z,15.05
2022-12-18T02:17:06.853Z,12.45
2022-12-18T02:19:49.378Z,13.10
2022-12-18T02:22:30.478Z,13.00
2022-12-18T02:25:15.713Z,13.82
2022-12-18T02:27:53.276Z,20.75
2022-12-18T02:30:31.765Z,18.33
2022-12-18T02:33:09.237Z,13.23
2022-12-18T02:35:44.474Z,14.13
2022-12-18T02:38:20.166Z,10.35
2022-12-18T02:40:59.133Z,12.10
2022-12-18T02:43:35.530Z,11.90
2022-12-18T02:46:29.679Z,12.52
2022-12-18T02:49:20.020Z,13.57
2022-12-18T02:51:58.624Z,12.48
2022-12-18T02:54:51.382Z,12.93
2022-12-18T02:57:36.237Z,10.48
2022-12-18T03:00:15.071Z,15.77
2022-12-18T03:02:54.489Z,10.43
2022-12-18T03:05:35.697Z,15.48
2022-12-18T03:08:14.662Z,11.80
2022-12-18T03:10:54.708Z,13.32
2022-12-18T03:13:33.312Z,12.38
2022-12-18T03:16:13.055Z,14.32
2022-12-18T03:18:50.620Z,12.27
2022-12-18T03:21:30.548Z,12.13
2022-12-18T03:24:08.722Z,10.25
2022-12-18T03:26:48.812Z,12.38
2022-12-18T03:29:26.674Z,10.77
2022-12-18T03:32:08.316Z,11.07
2022-12-18T03:34:44.312Z,11.60
2022-12-18T03:37:20.986Z,13.98
2022-12-18T03:39:55.168Z,13.50
2022-12-18T03:42:35.090Z,15.50
2022-12-18T03:45:21.148Z,17.70
2022-12-18T03:48:05.390Z,17.77
2022-12-18T03:50:48.937Z,10.82
2022-12-18T03:53:34.083Z,13.32
2022-12-18T03:56:09.768Z,14.57
2022-12-18T03:58:48.485Z,13.63
2022-12-18T04:01:33.255Z,15.52
2022-12-18T04:04:10.851Z,12.70
2022-12-18T04:06:49.079Z,15.30
2022-12-18T04:09:25.325Z,15.30
2022-12-18T04:12:00.225Z,15.20
2022-12-18T04:14:36.779Z,14.10
2022-12-18T04:17:14.575Z,13.05
2022-12-18T04:19:50.205Z,14.68
2022-12-18T04:22:24.357Z,14.95
2022-12-18T04:25:04.130Z,17.15
2022-12-18T04:27:44.156Z,17.35
2022-12-18T04:30:20.093Z,12.77
2022-12-18T04:32:54.182Z,14.10
2022-12-18T04:35:30.777Z,12.55
2022-12-18T04:38:04.783Z,12.75
2022-12-18T04:40:41.417Z,12.10
2022-12-18T04:43:23.786Z,14.52
2022-12-18T04:46:04.832Z,13.23
2022-12-18T04:48:39.372Z,12.30
2022-12-18T04:51:14.704Z,13.95
2022-12-18T04:53:48.613Z,17.17
2022-12-18T04:56:22.583Z,18.92
2022-12-18T04:58:56.466Z,15.50
2022-12-18T05:04:09.119Z,12.88
2022-12-18T05:06:44.497Z,17.40
2022-12-18T05:09:18.497Z,14.73
2022-12-18T05:11:53.486Z,15.82
2022-12-18T05:17:02.621Z,15.32
2022-12-18T05:19:36.698Z,14.23
2022-12-18T05:22:13.937Z,15.35
2022-12-18T05:24:47.912Z,20.08
2022-12-18T05:27:21.774Z,13.10
2022-12-18T05:32:29.317Z,17.63
2022-12-18T05:35:03.238Z,13.02
2022-12-18T05:40:17.284Z,13.07
2022-12-18T05:42:51.183Z,13.65
2022-12-18T05:45:25.130Z,14.30
2022-12-18T05:47:59.079Z,12.70
2022-12-18T05:50:32.920Z,13.70
2022-12-18T05:53:11.076Z,14.05
2022-12-18T05:55:46.268Z,11.77
2022-12-18T05:58:20.357Z,14.55
2022-12-18T06:00:54.232Z,16.00
2022-12-18T06:03:33.737Z,14.52
2022-12-18T06:06:15.955Z,13.15
2022-12-18T06:08:52.496Z,14.18
2022-12-18T06:11:28.788Z,12.40
2022-12-18T06:14:03.321Z,13.27
2022-12-18T06:16:37.384Z,15.07
2022-12-18T06:19:17.569Z,10.85
2022-12-18T06:21:51.904Z,14.63
2022-12-18T06:24:27.472Z,15.20
2022-12-18T06:27:01.602Z,11.80
2022-12-18T06:29:35.615Z,11.40
2022-12-18T06:32:09.720Z,10.18
2022-12-18T06:34:43.679Z,12.55
2022-12-18T06:37:17.576Z,12.80
2022-12-18T06:39:52.877Z,13.02
2022-12-18T06:42:27.186Z,16.92
2022-12-18T06:45:01.425Z,13.40
2022-12-18T06:47:35.761Z,17.08
2022-12-18T06:50:10.826Z,15.05
2022-12-18T06:52:45.171Z,13.70
2022-12-18T06:55:21.148Z,13.90
2022-12-18T06:57:55.220Z,15.15
2022-12-18T07:00:29.210Z,18.02
2022-12-18T07:03:03.253Z,19.25
2022-12-18T07:05:41.580Z,17.52
2022-12-18T07:08:15.477Z,16.05
2022-12-18T07:13:30.518Z,23.10
2022-12-18T07:16:18.337Z,14.05
2022-12-18T07:18:56.410Z,22.73
2022-12-18T07:21:30.543Z,19.75
2022-12-18T07:24:04.572Z,18.13
2022-12-18T07:26:40.276Z,20.50
2022-12-18T07:29:14.221Z,17.70
2022-12-18T07:31:48.393Z,17.80
2022-12-18T07:34:22.448Z,18.00
2022-12-18T07:36:56.561Z,18.95
2022-12-18T07:42:22.927Z,18.63
2022-12-18T07:44:57.564Z,15.70
2022-12-18T07:47:32.702Z,17.10
2022-12-18T07:50:08.313Z,18.73
2022-12-18T07:52:42.354Z,20.83
2022-12-18T07:55:16.332Z,20.42
2022-12-18T07:57:54.324Z,15.45
2022-12-18T08:00:31.801Z,22.95
2022-12-18T08:03:05.895Z,16.23
2022-12-18T08:05:40.343Z,19.92
2022-12-18T08:08:14.391Z,15.15
2022-12-18T08:10:48.971Z,15.82
2022-12-18T08:13:24.604Z,17.30
2022-12-18T08:15:59.639Z,15.43
2022-12-18T08:18:37.341Z,22.30
2022-12-18T08:21:11.902Z,20.90
2022-12-18T08:23:47.429Z,17.95
2022-12-18T08:26:23.520Z,15.20
2022-12-18T08:29:00.471Z,18.90
2022-12-18T08:31:35.425Z,15.60
2022-12-18T08:34:11.084Z,18.33
2022-12-18T08:36:45.143Z,16.92
2022-12-18T08:39:19.170Z,15.65
2022-12-18T08:42:10.088Z,18.60
2022-12-18T08:44:45.860Z,20.00
2022-12-18T08:47:19.760Z,22.95
2022-12-18T08:49:53.772Z,18.58
2022-12-18T08:52:27.783Z,19.85
2022-12-18T08:55:01.879Z,20.10
2022-12-18T08:57:36.062Z,22.58
2022-12-18T09:00:14.308Z,24.48
2022-12-18T09:02:49.155Z,22.90
2022-12-18T09:05:26.715Z,33.88
2022-12-18T09:08:00.764Z,26.00
2022-12-18T09:10:44.238Z,27.38
2022-12-18T09:13:19.060Z,22.60
2022-12-18T09:15:56.605Z,21.33
2022-12-18T09:18:30.689Z,23.85
2022-12-18T09:21:11.310Z,24.98
2022-12-18T09:23:46.018Z,29.83
2022-12-18T09:26:20.051Z,20.73
2022-12-18T09:28:54.462Z,19.80
2022-12-18T09:31:30.003Z,18.17
2022-12-18T09:34:03.911Z,23.45
2022-12-18T09:36:38.038Z,24.30
2022-12-18T09:39:12.047Z,20.05
2022-12-18T09:41:51.046Z,28.73
2022-12-18T09:44:29.425Z,22.70
2022-12-18T09:47:15.816Z,22.38
2022-12-18T09:49:53.192Z,26.48
2022-12-18T09:52:32.561Z,21.42
2022-12-18T09:55:13.616Z,21.77
2022-12-18T09:57:51.926Z,29.23
2022-12-18T10:00:27.314Z,25.45
2022-12-18T10:03:06.241Z,21.77
2022-12-18T10:05:48.251Z,24.65
2022-12-18T10:08:29.105Z,18.30
2022-12-18T10:11:17.085Z,16.35
2022-12-18T10:13:56.741Z,18.15
2022-12-18T10:16:38.939Z,25.33
2022-12-18T10:19:28.403Z,19.45
2022-12-18T10:22:11.811Z,16.88
2022-12-18T10:24:53.626Z,33.72
2022-12-18T10:27:29.308Z,60.72
2022-12-18T10:30:07.332Z,54.38
2022-12-18T10:32:42.252Z,49.78
2022-12-18T10:35:21.802Z,48.63
2022-12-18T10:38:03.861Z,47.60
2022-12-18T10:40:52.166Z,39.47
2022-12-18T10:43:28.638Z,40.75
2022-12-18T10:46:14.262Z,42.53
2022-12-18T10:48:56.129Z,38.95
2022-12-18T10:51:34.637Z,47.38
2022-12-18T10:54:19.278Z,40.92
2022-12-18T10:56:53.237Z,41.17
2022-12-18T10:59:27.243Z,39.15
2022-12-18T11:02:01.903Z,44.22
2022-12-18T11:04:36.411Z,38.58
2022-12-18T11:07:12.581Z,48.78
2022-12-18T11:10:01.285Z,43.50
2022-12-18T11:12:35.326Z,38.20
2022-12-18T11:15:18.840Z,43.05
2022-12-18T11:17:54.306Z,55.60
2022-12-18T11:20:36.533Z,38.00
2022-12-18T11:23:15.867Z,42.50
2022-12-18T11:25:55.507Z,46.65
2022-12-18T11:28:36.789Z,35.63
2022-12-18T11:31:26.096Z,40.70
2022-12-18T11:34:27.927Z,36.53
2022-12-18T11:37:02.297Z,41.58
2022-12-18T11:39:43.044Z,42.80
2022-12-18T11:42:26.146Z,769.80
2022-12-18T11:45:04.646Z,460.33
2022-12-18T11:47:46.340Z,468.95
2022-12-18T11:50:23.263Z,458.10
2022-12-18T11:53:01.520Z,445.88
2022-12-18T11:55:49.765Z,322.38
2022-12-18T11:58:41.342Z,321.52
2022-12-18T12:01:26.659Z,295.92
2022-12-18T12:04:22.600Z,244.60
2022-12-18T12:07:05.622Z,189.05
2022-12-18T12:09:52.651Z,185.10
2022-12-18T12:12:49.182Z,179.60
2022-12-18T12:15:31.227Z,173.80
2022-12-18T12:18:16.487Z,148.93
2022-12-18T12:20:56.206Z,123.65
2022-12-18T12:23:41.331Z,130.60
2022-12-18T12:26:21.287Z,128.00
2022-12-18T12:29:20.995Z,120.63
2022-12-18T12:32:09.704Z,128.05
2022-12-18T12:34:56.186Z,115.55
2022-12-18T12:37:45.296Z,110.63
2022-12-18T12:43:35.214Z,97.85
2022-12-18T12:46:12.773Z,101.80
2022-12-18T12:48:50.544Z,100.40
2022-12-18T12:51:28.553Z,98.65
2022-12-18T12:54:05.270Z,98.82
2022-12-18T12:56:48.475Z,80.18
2022-12-18T12:59:29.205Z,84.30
2022-12-18T13:02:16.504Z,78.65
2022-12-18T13:04:59.818Z,79.70
2022-12-18T13:07:40.200Z,76.85
2022-12-18T13:10:27.329Z,70.93
2022-12-18T13:13:02.413Z,81.38
2022-12-18T13:15:41.402Z,72.43
2022-12-18T13:18:22.469Z,69.35
2022-12-18T13:21:10.511Z,76.28
2022-12-18T13:23:45.750Z,68.70
2022-12-18T13:26:44.113Z,64.57
2022-12-18T13:29:44.089Z,59.60
2022-12-18T13:32:24.496Z,56.28
2022-12-18T13:35:32.542Z,62.85
2022-12-18T13:38:24.247Z,57.65
2022-12-18T13:41:00.106Z,57.28
2022-12-18T13:43:44.690Z,59.08
2022-12-18T13:46:27.364Z,63.65
2022-12-18T13:49:05.689Z,45.85
2022-12-18T13:51:44.215Z,46.70
2022-12-18T13:54:27.176Z,47.67
2022-12-18T13:57:01.169Z,47.28
2022-12-18T13:59:38.299Z,49.90
2022-12-18T14:02:17.128Z,54.70
2022-12-18T14:04:52.781Z,44.30
2022-12-18T14:07:31.504Z,48.38
2022-12-18T14:13:17.620Z,48.92
2022-12-18T14:15:52.671Z,50.55
2022-12-18T14:18:31.881Z,48.05
2022-12-18T14:21:07.263Z,40.30
2022-12-18T14:23:44.622Z,44.10
2022-12-18T14:26:30.452Z,48.53
2022-12-18T14:29:22.723Z,38.63
2022-12-18T14:32:18.135Z,43.55
2022-12-18T14:34:54.724Z,40.10
2022-12-18T14:37:29.779Z,36.53
2022-12-18T14:40:15.041Z,34.03
2022-12-18T14:42:50.731Z,37.35
2022-12-18T14:45:52.786Z,35.22
2022-12-18T14:48:38.256Z,41.15
2022-12-18T14:51:19.811Z,33.50
2022-12-18T14:53:57.861Z,51.50
2022-12-18T14:56:33.393Z,38.95
2022-12-18T14:59:23.825Z,42.40
2022-12-18T15:02:04.023Z,38.55
2022-12-18T15:04:44.199Z,35.53
2022-12-18T15:07:20.861Z,35.42
2022-12-18T15:10:11.836Z,34.17
2022-12-18T15:12:47.401Z,41.65
2022-12-18T15:15:51.032Z,40.95
2022-12-18T15:18:32.175Z,38.25
2022-12-18T15:21:12.249Z,38.63
2022-12-18T15:23:49.461Z,40.60
2022-12-18T15:26:24.115Z,37.78
2022-12-18T15:28:59.558Z,37.85
2022-12-18T15:31:35.892Z,36.47
2022-12-18T15:34:15.595Z,60.30
2022-12-18T15:36:49.187Z,92.82
2022-12-18T15:39:22.490Z,89.95
2022-12-18T15:42:13.377Z,87.47
2022-12-18T15:44:46.718Z,96.15
2022-12-18T15:47:21.366Z,82.25
2022-12-18T15:49:54.525Z,86.88
2022-12-18T15:52:28.005Z,83.25
2022-12-18T15:55:18.440Z,83.47
2022-12-18T15:57:51.659Z,71.25
2022-12-18T16:00:25.133Z,79.82
2022-12-18T16:02:59.722Z,82.95
2022-12-18T16:05:33.799Z,75.38
2022-12-18T16:08:07.046Z,82.25
2022-12-18T16:10:40.264Z,86.05
2022-12-18T16:13:14.553Z,79.85
2022-12-18T16:15:47.844Z,74.72
2022-12-18T16:18:22.347Z,70.25
2022-12-18T16:20:55.607Z,72.35
2022-12-18T16:23:29.517Z,62.33
2022-12-18T16:26:02.711Z,63.55
2022-12-18T16:28:35.886Z,69.90
2022-12-18T16:31:10.350Z,60.10
2022-12-18T16:33:45.460Z,56.85
2022-12-18T16:36:18.660Z,60.03
2022-12-18T16:38:51.919Z,66.60
2022-12-18T16:41:34.341Z,62.42
2022-12-18T16:44:07.525Z,67.40
2022-12-18T16:46:43.694Z,70.20
2022-12-18T16:49:20.149Z,68.53
2022-12-18T16:51:53.282Z,66.20
2022-12-18T16:54:26.591Z,76.90
2022-12-18T16:57:00.724Z,79.30
2022-12-18T16:59:34.076Z,69.03
2022-12-18T17:02:07.892Z,67.05
2022-12-18T17:07:16.336Z,59.45
2022-12-18T17:09:50.502Z,55.58
2022-12-18T17:12:24.965Z,53.28
2022-12-18T17:14:58.101Z,64.20
2022-12-18T17:17:31.954Z,56.92
2022-12-18T17:20:07.150Z,58.42
2022-12-18T17:22:40.311Z,46.47
2022-12-18T17:25:14.566Z,54.65
2022-12-18T17:27:47.720Z,46.60
2022-12-18T17:30:20.865Z,50.53
2022-12-18T17:32:54.045Z,43.00
2022-12-18T17:35:28.695Z,39.75
2022-12-18T17:38:01.977Z,39.30
2022-12-18T17:40:35.098Z,39.65
2022-12-18T17:43:08.747Z,31.67
2022-12-18T17:45:42.634Z,34.70
2022-12-18T17:48:15.805Z,35.78
2022-12-18T17:50:50.551Z,36.40
2022-12-18T17:53:23.692Z,35.30
2022-12-18T17:55:57.942Z,38.00
2022-12-18T17:58:31.186Z,35.90
2022-12-18T18:01:06.005Z,30.35
2022-12-18T18:03:39.682Z,28.45
2022-12-18T18:06:15.603Z,31.08
2022-12-18T18:08:49.253Z,33.15
2022-12-18T18:11:42.960Z,23.48
2022-12-18T18:14:19.906Z,29.75
2022-12-18T18:16:55.390Z,31.00
2022-12-18T18:19:30.247Z,34.35
2022-12-18T18:22:04.987Z,27.45
2022-12-18T18:24:38.607Z,28.27
2022-12-18T18:27:12.100Z,26.02
2022-12-18T18:29:45.746Z,26.08
2022-12-18T18:32:19.063Z,24.73
2022-12-18T18:34:52.798Z,27.15
2022-12-18T18:42:35.670Z,31.42
2022-12-18T18:45:10.073Z,27.13
2022-12-18T18:47:43.307Z,27.67
2022-12-18T18:50:16.898Z,27.20
2022-12-18T18:52:52.128Z,25.08
2022-12-18T18:55:25.985Z,30.38
2022-12-18T18:57:59.400Z,29.00
2022-12-18T19:00:34.161Z,32.78
2022-12-18T19:03:08.049Z,22.25
2022-12-18T19:05:44.436Z,25.85
2022-12-18T19:08:22.792Z,29.00
2022-12-18T19:10:57.999Z,27.95
2022-12-18T19:13:34.627Z,21.13
2022-12-18T19:16:10.804Z,27.52
2022-12-18T19:18:44.986Z,19.67
2022-12-18T19:21:18.540Z,19.20
2022-12-18T19:23:55.656Z,21.83
2022-12-18T19:26:29.312Z,20.95
2022-12-18T19:29:03.571Z,24.45
2022-12-18T19:31:37.637Z,18.35
2022-12-18T19:34:12.091Z,19.17
2022-12-18T19:36:45.477Z,20.73
2022-12-18T19:39:20.860Z,19.27
2022-12-18T19:41:54.772Z,21.30
2022-12-18T19:47:01.103Z,23.95
2022-12-18T19:49:34.495Z,19.30
2022-12-18T19:52:07.709Z,23.10
2022-12-18T19:54:47.529Z,22.40
2022-12-18T19:57:21.230Z,20.17
2022-12-18T19:59:54.632Z,19.98
2022-12-18T20:02:28.272Z,22.50
2022-12-18T20:07:35.891Z,22.20
2022-12-18T20:10:15.634Z,16.65
2022-12-18T20:12:50.579Z,20.23
2022-12-18T20:17:57.518Z,17.95
2022-12-18T20:20:30.954Z,18.52
2022-12-18T20:23:04.742Z,20.13
2022-12-18T20:25:39.784Z,20.52
2022-12-18T20:28:13.187Z,16.65
2022-12-18T20:30:46.776Z,18.65
2022-12-18T20:33:22.391Z,18.95
2022-12-18T20:35:55.670Z,16.90
2022-12-18T20:38:30.095Z,18.33
2022-12-18T20:41:08.339Z,18.83
2022-12-18T20:43:41.661Z,20.40
2022-12-18T20:46:17.858Z,16.33
2022-12-18T20:48:51.148Z,17.77
2022-12-18T20:51:24.382Z,16.77
2022-12-18T20:53:59.648Z,18.33
2022-12-18T20:56:34.866Z,17.27
2022-12-18T20:59:08.132Z,16.33
2022-12-18T21:01:46.362Z,16.17
2022-12-18T21:04:23.293Z,16.17
2022-12-18T21:07:02.333Z,15.77
2022-12-18T21:09:38.188Z,16.73
2022-12-18T21:12:40.550Z,15.82
2022-12-18T21:15:17.373Z,17.67
2022-12-18T21:17:50.699Z,16.02
2022-12-18T21:20:23.977Z,16.05
2022-12-18T21:22:57.752Z,20.30
2022-12-18T21:25:45.603Z,15.02
2022-12-18T21:28:21.180Z,15.02
2022-12-18T21:30:54.945Z,16.98
2022-12-18T21:33:28.234Z,15.57
2022-12-18T21:36:05.198Z,17.75
2022-12-18T21:38:38.404Z,14.63
2022-12-18T21:41:37.448Z,15.23
2022-12-18T21:44:17.833Z,13.73
2022-12-18T21:46:58.226Z,12.52
2022-12-18T21:49:35.279Z,11.25
2022-12-18T21:52:08.961Z,18.23
2022-12-18T21:54:42.212Z,12.27
2022-12-18T21:57:15.596Z,16.88
2022-12-18T21:59:50.588Z,13.35
2022-12-18T22:02:24.546Z,13.93
2022-12-18T22:04:57.878Z,14.23
2022-12-18T22:07:31.071Z,14.57
2022-12-18T22:10:04.378Z,14.88
2022-12-18T22:12:43.111Z,15.05
2022-12-18T22:15:19.230Z,14.98
2022-12-18T22:18:00.182Z,16.92
2022-12-18T22:20:34.373Z,13.38
2022-12-18T22:25:40.587Z,13.63
2022-12-18T22:28:31.392Z,12.02
2022-12-18T22:31:06.675Z,11.82
2022-12-18T22:33:39.913Z,11.95
2022-12-18T22:36:13.166Z,10.77
2022-12-18T22:38:48.182Z,10.73
2022-12-18T22:41:21.418Z,14.52
2022-12-18T22:43:54.558Z,10.50
2022-12-18T22:46:32.280Z,13.02
2022-12-18T22:49:05.694Z,10.82
2022-12-18T22:51:38.984Z,10.70
2022-12-18T22:54:12.217Z,10.02
2022-12-18T22:56:45.644Z,8.73
2022-12-18T22:59:20.857Z,11.75
2022-12-18T23:01:59.138Z,8.77
2022-12-18T23:04:36.507Z,9.45
2022-12-18T23:07:10.283Z,11.05
2022-12-18T23:09:45.169Z,14.40
2022-12-18T23:12:19.961Z,9.30
2022-12-18T23:14:53.708Z,9.23
2022-12-18T23:20:01.262Z,9.98
2022-12-18T23:22:34.442Z,8.07
2022-12-18T23:25:08.043Z,7.22
2022-12-18T23:27:41.299Z,11.57
2022-12-18T23:30:14.961Z,8.98
2022-12-18T23:32:49.453Z,8.15
2022-12-18T23:35:22.569Z,9.30
2022-12-18T23:37:59.806Z,8.15
2022-12-18T23:40:33.592Z,13.80
2022-12-18T23:43:07.169Z,7.32
2022-12-18T23:45:40.283Z,12.05
2022-12-18T23:48:14.837Z,10.32
2022-12-18T23:50:48.029Z,8.57
2022-12-18T23:53:21.330Z,8.10
2022-12-18T23:55:54.471Z,8.95
2022-12-18T23:58:28.860Z,8.32
